Rudyard, Montana
Current Conditions -  °F | °C
As of 8:53 PM on Monday 20 Oct 2014 (Local Time) from KHVR Reporting Station
Clear Clear  
Wind Chill: 54°   Ceiling: Unl
Heat Index: 54°   Visibility: 10mi
Dew Point: 46°   Wind: 3mph
Humidity: 75%   Direction: 60°ENE
Pressure: 29.7"   Gusts: NA
Location:  48.56°N, 110.56°W
Report Text: KHVR 210253Z AUTO 06003KT 10SM CLR 12/08 A2970 RMK AO2 SLP064 T01220078 58002
Loading
Personal Weather Stations






























Interactive Weather Map
Tropical Storm Tracking
New forecast layout! Learn more

10-Day Weather Forecast

Advertisements
Track Severe Weather on mobile